El Bolson Airport


Codes: SAVB/EHL
Name: El Bolson Airport
City: El Bolson
Country: Argentina
Elevation: 1141 ft.

Photos at El Bolson Airport


   Photos courtesy of SpottingLog. You can add your own sightings and photos by signing up for a free trial today.



No photos found.

Weather at El Bolson Airport


Time (UTC)DescriptionTempratureWindCloud coverageVisibilityPressureHumidity
18-Apr-2024 00:00Overcast Clouds13°C4 mph, NW90%10000m1017hPa69%
18-Apr-2024 03:00Broken Clouds10°C4 mph, N84%10000m1017hPa79%
18-Apr-2024 06:00Broken Clouds8°C4 mph, NW73%10000m1016hPa87%
18-Apr-2024 09:00Broken Clouds7°C4 mph, N66%10000m1013hPa80%
18-Apr-2024 12:00Broken Clouds8°C4 mph, N75%10000m1010hPa79%
18-Apr-2024 15:00Broken Clouds17°C7 mph, NW59%10000m1004hPa50%
18-Apr-2024 18:00Moderate Rain12°C4 mph, NW65%4748m1005hPa96%
18-Apr-2024 21:00Moderate Rain12°C4 mph, NW100%4496m1003hPa98%
19-Apr-2024 00:00Light Rain10°C7 mph, NW98%10000m1006hPa95%
19-Apr-2024 03:00Light Rain8°C7 mph, NW90%10000m1007hPa96%
19-Apr-2024 06:00Light Rain8°C9 mph, NW94%1149m1007hPa97%
19-Apr-2024 09:00Moderate Rain7°C9 mph, NW100%713m1007hPa98%
19-Apr-2024 12:00Moderate Rain6°C9 mph, NW100%532m1010hPa98%
19-Apr-2024 15:00Light Rain8°C9 mph, NW100%3723m1011hPa93%
19-Apr-2024 18:00Light Rain9°C11 mph, NW97%4812m1011hPa88%
19-Apr-2024 21:00Light Rain8°C11 mph, NW99%351m1013hPa97%
20-Apr-2024 00:00Light Rain7°C9 mph, NW98%10000m1016hPa96%
20-Apr-2024 03:00Overcast Clouds7°C9 mph, NW96%10000m1017hPa93%
20-Apr-2024 06:00Overcast Clouds6°C7 mph, NW97%10000m1017hPa95%
20-Apr-2024 09:00Scattered Clouds6°C7 mph, NW50%10000m1018hPa94%
20-Apr-2024 12:00Broken Clouds6°C4 mph, NW55%10000m1019hPa92%
20-Apr-2024 15:00Broken Clouds9°C4 mph, W69%10000m1019hPa74%
20-Apr-2024 18:00Broken Clouds10°C4 mph, W83%10000m1017hPa68%
20-Apr-2024 21:00Light Rain9°C4 mph, W94%10000m1018hPa75%
21-Apr-2024 00:00Broken Clouds5°C4 mph, NW75%10000m1021hPa96%
21-Apr-2024 03:00Broken Clouds4°C2 mph, W51%10000m1023hPa97%
21-Apr-2024 06:00Broken Clouds3°C2 mph, NW75%10000m1023hPa96%
21-Apr-2024 09:00Overcast Clouds3°C2 mph, SE100%10000m1023hPa97%
21-Apr-2024 12:00Overcast Clouds4°C2 mph, SE100%10000m1024hPa93%
21-Apr-2024 15:00Overcast Clouds9°C2 mph, SE100%10000m1021hPa69%
21-Apr-2024 18:00Overcast Clouds12°C4 mph, SE100%10000m1019hPa59%
21-Apr-2024 21:00Overcast Clouds10°C4 mph, S100%10000m1019hPa72%
22-Apr-2024 00:00Overcast Clouds7°C2 mph, NW100%10000m1021hPa86%
22-Apr-2024 03:00Overcast Clouds6°C2 mph, NW100%10000m1021hPa92%
22-Apr-2024 06:00Overcast Clouds5°C4 mph, NW100%10000m1021hPa96%
22-Apr-2024 09:00Overcast Clouds5°C4 mph, NW97%10000m1021hPa98%
22-Apr-2024 12:00Overcast Clouds5°C4 mph, NW95%10000m1020hPa91%
22-Apr-2024 15:00Overcast Clouds8°C4 mph, W100%10000m1020hPa77%
22-Apr-2024 18:00Broken Clouds12°C4 mph, W66%10000m1017hPa49%
22-Apr-2024 21:00Clear Sky10°C4 mph, W2%10000m1017hPa57%